Terminal Aerodrome Forecast
Issued by NWS Huntsville, AL

Home | Current Version | Previous Version | Text Only | Print | Product List | Glossary On
Versions: 1 2 3 4 5 6 7 8 9 10 11 12 13 14 15 16 17 18 19 20 21 22 23
000
FTUS44 KHUN 221729
TAFHSV
TAF
KHSV 221729Z 2218/2318 15012G17KT P6SM SCT100 BKN250
     FM230100 12009KT P6SM SCT030 OVC070
     FM230800 14005KT P6SM VCSH OVC015
     FM231000 13007KT P6SM -RA OVC015=

USA.gov is the U.S. government's official web portal to all federal, state and local government web resources and services.